Time;durP1;ratioP1;P1;durP2;ratioP2;P2;SDS_P1;SDS_P2;PMS_P1;PMS_P2;Temp;Humidity;BMP_temperature;BMP_pressure;BME280_temperature;BME280_humidity;BME280_pressure;Samples;Min_cycle;Max_cycle;Signal;HPM_P1;HPM_P2
2023/03/04 00:01:15;;;;;;;40.87;15.57;;;-0.40;99.90;;;;;;4996231;28;20552;-66
2023/03/04 00:03:41;;;;;;;31.17;13.10;;;-0.40;99.90;;;;;;4996453;28;20200;-65
2023/03/04 00:06:07;;;;;;;48.90;16.63;;;-0.50;99.90;;;;;;4998490;28;20242;-66
2023/03/04 00:08:33;;;;;;;35.17;12.90;;;-0.50;99.90;;;;;;4992667;28;20411;-65
2023/03/04 00:10:58;;;;;;;30.97;12.23;;;-0.50;99.90;;;;;;4999068;28;20760;-65
2023/03/04 00:13:24;;;;;;;27.20;12.53;;;-0.50;99.90;;;;;;4993393;28;20775;-65
2023/03/04 00:15:50;;;;;;;37.80;13.80;;;-0.60;99.90;;;;;;4999657;28;20187;-66
2023/03/04 00:18:16;;;;;;;29.00;12.80;;;-0.60;99.90;;;;;;4994014;28;20180;-66
2023/03/04 00:20:42;;;;;;;38.03;13.73;;;-0.60;99.90;;;;;;4995572;28;20975;-66
2023/03/04 00:23:07;;;;;;;33.43;14.50;;;-0.60;99.90;;;;;;4995426;28;20423;-65
2023/03/04 00:25:33;;;;;;;33.03;13.47;;;-0.70;99.90;;;;;;4992937;28;20760;-66
2023/03/04 00:27:59;;;;;;;23.17;11.77;;;-0.70;99.90;;;;;;4996327;28;20179;-66
2023/03/04 00:30:25;;;;;;;30.27;13.10;;;-0.80;99.90;;;;;;4999114;28;20187;-66
2023/03/04 00:32:51;;;;;;;31.73;12.77;;;-0.80;99.90;;;;;;4995385;28;20411;-65
2023/03/04 00:35:17;;;;;;;29.70;13.17;;;-0.80;99.90;;;;;;4996070;28;20430;-66
2023/03/04 00:37:42;;;;;;;31.80;14.03;;;-0.90;99.90;;;;;;4995588;28;20539;-65
2023/03/04 00:40:09;;;;;;;27.53;13.93;;;-0.90;99.90;;;;;;4997596;28;20516;-66
2023/03/04 00:42:34;;;;;;;26.47;11.10;;;-0.90;99.90;;;;;;4995430;28;20637;-65
2023/03/04 00:45:00;;;;;;;31.93;13.40;;;-0.90;99.90;;;;;;4999185;28;20453;-65
2023/03/04 00:47:25;;;;;;;30.43;12.23;;;-0.90;99.90;;;;;;4992430;28;20251;-66
2023/03/04 00:49:51;;;;;;;33.33;14.87;;;-1.00;99.90;;;;;;4999598;28;20175;-66
2023/03/04 00:52:17;;;;;;;35.87;13.27;;;-1.00;99.90;;;;;;4993148;28;20259;-66
2023/03/04 00:54:42;;;;;;;31.90;12.97;;;-1.00;99.90;;;;;;4997814;28;20348;-66
2023/03/04 00:57:08;;;;;;;26.13;13.63;;;-1.00;99.90;;;;;;4994924;28;20188;-66
2023/03/04 00:59:34;;;;;;;43.30;17.07;;;-1.00;99.90;;;;;;4997227;28;20199;-65
2023/03/04 01:01:59;;;;;;;40.37;14.07;;;-1.00;99.90;;;;;;4995019;28;20184;-65
2023/03/04 01:04:25;;;;;;;28.60;13.80;;;-0.90;99.90;;;;;;4998204;28;20282;-66
2023/03/04 01:06:51;;;;;;;29.67;13.30;;;-0.90;99.90;;;;;;4995144;28;20207;-66
2023/03/04 01:09:16;;;;;;;32.87;15.10;;;-1.00;99.90;;;;;;4998468;28;20179;-65
2023/03/04 01:11:42;;;;;;;30.03;12.27;;;-1.00;99.90;;;;;;4994909;28;20207;-65
2023/03/04 01:14:07;;;;;;;31.60;13.40;;;-1.00;99.90;;;;;;4996404;28;20610;-65
2023/03/04 01:16:33;;;;;;;33.97;14.67;;;-1.10;99.90;;;;;;4995100;28;20186;-65
2023/03/04 01:18:59;;;;;;;27.00;13.23;;;-1.10;99.90;;;;;;4997092;28;20179;-68
2023/03/04 01:21:24;;;;;;;26.83;14.50;;;-1.10;99.90;;;;;;4994912;28;20186;-68
2023/03/04 01:23:50;;;;;;;31.97;14.63;;;-1.20;99.90;;;;;;4994247;28;20504;-68
2023/03/04 01:26:16;;;;;;;34.43;14.13;;;-1.20;99.90;;;;;;4993296;28;20183;-65
2023/03/04 01:28:41;;;;;;;30.33;13.90;;;-1.20;99.90;;;;;;5000169;28;20178;-65
2023/03/04 01:31:07;;;;;;;37.87;16.33;;;-1.20;99.90;;;;;;4994007;28;20191;-65
2023/03/04 01:33:32;;;;;;;31.50;14.57;;;-1.20;99.90;;;;;;4996127;28;20735;-66
2023/03/04 01:35:58;;;;;;;46.03;14.43;;;-1.20;99.90;;;;;;4995948;28;20180;-65
2023/03/04 01:38:24;;;;;;;36.90;14.37;;;-1.30;99.90;;;;;;4997516;28;20262;-68
2023/03/04 01:40:50;;;;;;;41.23;14.90;;;-1.30;99.90;;;;;;4995881;28;20184;-68
2023/03/04 01:43:22;;;;;;;37.90;13.83;;;-1.30;99.90;;;;;;4994286;28;20266;-65
2023/03/04 01:45:49;;;;;;;25.03;13.03;;;-1.30;99.90;;;;;;4996301;28;20473;-68
2023/03/04 01:48:20;;;;;;;45.13;16.13;;;-1.30;99.90;;;;;;4994372;28;20941;-68
2023/03/04 01:50:45;;;;;;;35.90;13.67;;;-1.30;99.90;;;;;;4996924;28;20430;-68
2023/03/04 01:53:20;;;;;;;39.83;15.27;;;-1.20;99.90;;;;;;4997626;28;20427;-68
2023/03/04 01:55:47;;;;;;;32.47;13.20;;;-1.20;99.90;;;;;;4994289;28;20194;-68
2023/03/04 01:58:13;;;;;;;37.33;15.20;;;-1.10;99.90;;;;;;4997221;28;20630;-68
2023/03/04 02:00:39;;;;;;;33.20;15.80;;;-1.10;99.90;;;;;;4994596;28;20548;-67
2023/03/04 02:03:11;;;;;;;42.03;13.30;;;-1.10;99.90;;;;;;4995666;28;20229;-68
2023/03/04 02:05:40;;;;;;;31.40;13.30;;;-1.10;99.90;;;;;;4996091;28;20215;-68
2023/03/04 02:08:06;;;;;;;31.77;14.20;;;-1.10;99.90;;;;;;4992041;28;20423;-68
2023/03/04 02:10:33;;;;;;;42.37;15.33;;;-1.10;99.90;;;;;;4997468;28;20452;-68
2023/03/04 02:12:59;;;;;;;34.17;15.63;;;-1.10;99.90;;;;;;4993059;28;20430;-68
2023/03/04 02:15:25;;;;;;;32.30;12.80;;;-1.10;99.90;;;;;;4995251;28;20626;-68
2023/03/04 02:17:51;;;;;;;55.67;14.73;;;-1.20;99.90;;;;;;4993673;28;20510;-66
2023/03/04 02:20:29;;;;;;;33.60;14.47;;;-1.30;99.90;;;;;;4995015;28;20561;-66
2023/03/04 02:23:04;;;;;;;31.23;14.03;;;-1.20;99.90;;;;;;4990472;28;20183;-66
2023/03/04 02:25:56;;;;;;;30.00;13.70;;;-1.30;99.90;;;;;;4992029;28;20466;-66
2023/03/04 02:28:22;;;;;;;40.73;14.43;;;-1.30;99.90;;;;;;4975520;28;20427;-65
2023/03/04 02:30:48;;;;;;;29.63;13.63;;;-1.40;99.90;;;;;;4995448;28;20448;-68
2023/03/04 02:33:16;;;;;;;28.30;13.20;;;-1.40;99.90;;;;;;4992060;28;20255;-68
2023/03/04 02:35:42;;;;;;;37.00;14.63;;;-1.40;99.90;;;;;;4974688;28;20327;-68
2023/03/04 02:38:09;;;;;;;29.93;13.90;;;-1.50;99.90;;;;;;4999091;28;20446;-68
2023/03/04 02:40:36;;;;;;;32.27;13.30;;;-1.50;99.90;;;;;;4993905;28;20190;-68
2023/03/04 02:43:01;;;;;;;29.87;12.57;;;-1.50;99.90;;;;;;4998774;28;20422;-68
2023/03/04 02:45:39;;;;;;;31.33;11.73;;;-1.50;99.90;;;;;;4994193;28;20944;-68
2023/03/04 02:48:06;;;;;;;28.67;12.00;;;-1.60;99.90;;;;;;4998618;28;20179;-68
2023/03/04 02:50:35;;;;;;;37.53;12.97;;;-1.60;99.90;;;;;;4998372;28;20478;-68
2023/03/04 02:53:01;;;;;;;23.43;12.70;;;-1.60;99.90;;;;;;5000147;28;20741;-68
2023/03/04 02:55:27;;;;;;;35.10;13.43;;;-1.60;99.90;;;;;;4995464;28;20481;-68
2023/03/04 02:57:53;;;;;;;32.73;13.50;;;-1.60;99.90;;;;;;5000431;28;20213;-69
2023/03/04 03:00:18;;;;;;;30.43;12.30;;;-1.70;99.90;;;;;;4994741;28;20939;-66
2023/03/04 03:02:44;;;;;;;35.37;13.90;;;-1.70;99.90;;;;;;5000756;28;20234;-66
2023/03/04 03:05:11;;;;;;;35.00;13.80;;;-1.70;99.90;;;;;;4995768;28;20211;-66
2023/03/04 03:07:37;;;;;;;30.93;12.83;;;-1.70;99.90;;;;;;4998968;28;20178;-66
2023/03/04 03:10:03;;;;;;;43.03;13.00;;;-1.70;99.90;;;;;;4997302;28;20509;-68
2023/03/04 03:12:29;;;;;;;28.70;13.10;;;-1.70;99.90;;;;;;5000061;28;20533;-68
2023/03/04 03:14:54;;;;;;;33.60;14.17;;;-1.70;99.90;;;;;;4998862;28;20411;-68
2023/03/04 03:17:20;;;;;;;32.40;13.57;;;-1.80;99.90;;;;;;5000901;28;20311;-68
2023/03/04 03:19:45;;;;;;;35.20;13.10;;;-1.80;99.90;;;;;;4998769;28;20249;-68
2023/03/04 03:22:11;;;;;;;36.87;14.23;;;-1.90;99.90;;;;;;4997199;28;20199;-68
2023/03/04 03:24:37;;;;;;;35.20;13.73;;;-1.90;99.90;;;;;;4993833;28;20264;-68
2023/03/04 03:27:02;;;;;;;40.63;13.27;;;-1.90;99.90;;;;;;4999319;28;20224;-69
2023/03/04 03:29:28;;;;;;;34.70;13.60;;;-1.90;99.90;;;;;;4997731;28;20184;-68
2023/03/04 03:31:55;;;;;;;26.60;13.93;;;-1.90;99.90;;;;;;4999902;28;20213;-68
2023/03/04 03:34:21;;;;;;;39.10;15.73;;;-1.80;99.90;;;;;;4994389;28;20168;-68
2023/03/04 03:36:47;;;;;;;34.97;15.67;;;-1.80;99.90;;;;;;5000618;28;20437;-68
2023/03/04 03:39:14;;;;;;;24.37;12.83;;;-1.80;99.90;;;;;;4995361;28;20761;-68
2023/03/04 03:41:40;;;;;;;37.07;13.57;;;-1.80;99.90;;;;;;4997005;28;20690;-68
2023/03/04 03:44:06;;;;;;;28.03;12.40;;;-1.80;99.90;;;;;;4996423;28;20506;-68
2023/03/04 03:46:31;;;;;;;28.57;12.00;;;-1.80;99.90;;;;;;4998142;28;20876;-68
2023/03/04 03:48:57;;;;;;;28.50;12.73;;;-1.80;99.90;;;;;;4997347;28;20195;-68
2023/03/04 03:51:23;;;;;;;32.33;13.07;;;-1.80;99.90;;;;;;4998968;28;20180;-68
2023/03/04 03:53:48;;;;;;;41.70;12.67;;;-1.80;99.90;;;;;;4997343;28;20233;-68
2023/03/04 03:56:14;;;;;;;36.23;12.47;;;-1.80;99.90;;;;;;4995426;28;20206;-68
2023/03/04 03:58:39;;;;;;;35.43;12.07;;;-1.80;99.90;;;;;;4997334;28;20180;-68
2023/03/04 04:01:05;;;;;;;27.63;11.43;;;-1.90;99.90;;;;;;4975828;28;20199;-68
2023/03/04 04:03:31;;;;;;;31.00;13.27;;;-1.90;99.90;;;;;;4997753;28;20212;-68
2023/03/04 04:05:56;;;;;;;27.67;12.90;;;-1.90;99.90;;;;;;5000000;28;20230;-68
2023/03/04 04:08:22;;;;;;;25.67;12.20;;;-1.90;99.90;;;;;;4994042;28;20187;-68
2023/03/04 04:10:47;;;;;;;35.93;15.20;;;-1.90;99.90;;;;;;5001702;28;20675;-66
2023/03/04 04:13:13;;;;;;;31.83;14.30;;;-2.00;99.90;;;;;;4994033;28;20184;-66
2023/03/04 04:15:38;;;;;;;29.87;11.63;;;-2.00;99.90;;;;;;5001740;28;20183;-66
2023/03/04 04:18:05;;;;;;;28.23;12.60;;;-2.00;99.90;;;;;;4995101;28;20180;-66
2023/03/04 04:20:31;;;;;;;39.10;14.50;;;-2.00;99.90;;;;;;4997533;28;20180;-66
2023/03/04 04:22:57;;;;;;;42.77;15.30;;;-2.00;99.90;;;;;;4996338;28;20422;-66
2023/03/04 04:25:22;;;;;;;33.80;12.77;;;-2.10;99.90;;;;;;4994083;28;20257;-67
2023/03/04 04:27:48;;;;;;;36.60;14.17;;;-2.10;99.90;;;;;;4996553;28;20657;-67
2023/03/04 04:30:14;;;;;;;55.27;15.53;;;-2.10;99.90;;;;;;4998813;28;20671;-67
2023/03/04 04:32:40;;;;;;;30.87;14.07;;;-2.10;99.90;;;;;;4995280;28;20171;-67
2023/03/04 04:35:06;;;;;;;38.30;14.10;;;-2.10;99.90;;;;;;4995911;28;20489;-67
2023/03/04 04:37:32;;;;;;;30.10;12.70;;;-2.20;99.90;;;;;;4996183;28;20615;-67
2023/03/04 04:39:57;;;;;;;48.40;14.10;;;-2.30;99.90;;;;;;4997737;28;20516;-67
2023/03/04 04:42:23;;;;;;;34.53;14.17;;;-2.30;99.90;;;;;;4995760;28;20183;-67
2023/03/04 04:44:49;;;;;;;25.37;11.67;;;-2.30;99.90;;;;;;4998649;28;20234;-67
2023/03/04 04:47:14;;;;;;;35.10;13.43;;;-2.30;99.90;;;;;;4992376;28;20203;-67
2023/03/04 04:49:40;;;;;;;37.63;13.27;;;-2.30;99.90;;;;;;5000067;28;20683;-67
2023/03/04 04:52:06;;;;;;;32.23;12.00;;;-2.40;99.90;;;;;;4992907;28;20183;-67
2023/03/04 04:54:31;;;;;;;36.77;14.43;;;-2.40;99.90;;;;;;4998189;28;20184;-67
2023/03/04 04:56:57;;;;;;;19.60;11.90;;;-2.40;99.90;;;;;;4994925;28;20180;-67
2023/03/04 04:59:22;;;;;;;38.47;11.80;;;-2.40;99.90;;;;;;4997278;28;20191;-67
2023/03/04 05:01:48;;;;;;;33.00;12.70;;;-2.40;99.90;;;;;;4994773;28;20547;-67
2023/03/04 05:04:14;;;;;;;27.27;13.30;;;-2.40;99.90;;;;;;4999191;28;20187;-67
2023/03/04 05:06:40;;;;;;;26.67;12.67;;;-2.40;99.90;;;;;;4995848;28;20186;-67
2023/03/04 05:09:06;;;;;;;27.63;12.63;;;-2.40;99.90;;;;;;4996421;28;20647;-67
2023/03/04 05:11:31;;;;;;;28.83;12.60;;;-2.40;99.90;;;;;;4989567;28;20175;-67
2023/03/04 05:13:57;;;;;;;34.93;14.03;;;-2.40;99.90;;;;;;5003855;28;20937;-66
2023/03/04 05:16:23;;;;;;;37.33;12.97;;;-2.50;99.90;;;;;;4999611;28;20188;-67
2023/03/04 05:18:48;;;;;;;26.23;12.80;;;-2.60;99.90;;;;;;5002044;28;20621;-67
2023/03/04 05:21:14;;;;;;;38.83;13.20;;;-2.70;99.90;;;;;;4993433;28;20656;-67
2023/03/04 05:23:42;;;;;;;33.33;13.90;;;-2.70;99.90;;;;;;4995905;28;20230;-67
2023/03/04 05:26:10;;;;;;;36.27;13.20;;;-2.70;99.90;;;;;;4992978;28;21050;-66
2023/03/04 05:28:36;;;;;;;31.30;13.73;;;-2.70;99.90;;;;;;4999689;28;20425;-67
2023/03/04 05:31:02;;;;;;;31.07;14.40;;;-2.80;99.90;;;;;;4986632;28;20432;-67
2023/03/04 05:33:27;;;;;;;32.27;13.37;;;-2.80;99.90;;;;;;4991735;28;20175;-67
2023/03/04 05:35:53;;;;;;;29.70;13.40;;;-2.80;99.90;;;;;;4995245;28;20450;-66
2023/03/04 05:38:20;;;;;;;32.73;11.40;;;-2.80;99.90;;;;;;4992077;28;20187;-67
2023/03/04 05:40:47;;;;;;;29.90;13.70;;;-2.80;99.90;;;;;;4991252;28;20900;-67
2023/03/04 05:43:13;;;;;;;36.90;12.13;;;-2.90;99.90;;;;;;4997599;28;20421;-67
2023/03/04 05:45:39;;;;;;;28.47;13.40;;;-3.00;99.90;;;;;;4995859;28;20463;-67
2023/03/04 05:48:06;;;;;;;25.07;13.67;;;-3.00;99.90;;;;;;4995624;28;20402;-67
2023/03/04 05:50:33;;;;;;;30.70;14.60;;;-3.00;99.90;;;;;;4996409;28;20467;-67
2023/03/04 05:52:59;;;;;;;30.90;14.00;;;-2.90;99.90;;;;;;4997661;28;20406;-67
2023/03/04 05:55:26;;;;;;;32.83;15.37;;;-2.90;99.90;;;;;;4984678;28;20430;-67
2023/03/04 05:57:52;;;;;;;27.33;14.27;;;-2.90;99.90;;;;;;4990862;28;20187;-68
2023/03/04 06:00:18;;;;;;;33.60;15.40;;;-3.00;99.90;;;;;;4992325;28;20450;-66
2023/03/04 06:02:44;;;;;;;40.87;16.43;;;-3.00;99.90;;;;;;4997882;28;20457;-67
2023/03/04 06:05:12;;;;;;;28.97;13.33;;;-3.10;99.90;;;;;;4994080;28;20222;-67
2023/03/04 06:07:38;;;;;;;42.93;13.17;;;-3.10;99.90;;;;;;4996235;28;20429;-67
2023/03/04 06:10:05;;;;;;;38.50;14.20;;;-3.10;99.90;;;;;;4995655;28;20422;-67
2023/03/04 06:12:30;;;;;;;32.17;14.17;;;-3.10;99.90;;;;;;4997089;28;20195;-67
2023/03/04 06:14:56;;;;;;;28.33;13.53;;;-3.10;99.90;;;;;;4995419;28;20430;-67
2023/03/04 06:17:22;;;;;;;44.63;18.90;;;-3.10;99.90;;;;;;4997248;28;20557;-67
2023/03/04 06:19:47;;;;;;;63.63;20.77;;;-3.20;99.90;;;;;;4995439;28;20221;-66
2023/03/04 06:22:13;;;;;;;57.60;17.50;;;-3.20;99.90;;;;;;4994482;28;20452;-67
2023/03/04 06:24:38;;;;;;;33.80;14.70;;;-3.10;99.90;;;;;;4991219;28;20211;-67
2023/03/04 06:27:04;;;;;;;34.87;14.03;;;-3.10;99.90;;;;;;4996519;28;20603;-67
2023/03/04 06:29:30;;;;;;;34.60;15.50;;;-3.10;99.90;;;;;;4994714;28;20184;-67
2023/03/04 06:31:56;;;;;;;34.13;15.67;;;-3.10;99.90;;;;;;4996710;28;20513;-67
2023/03/04 06:34:22;;;;;;;59.77;16.80;;;-3.10;99.90;;;;;;4991584;28;20501;-67
2023/03/04 06:36:47;;;;;;;33.50;14.73;;;-3.00;99.90;;;;;;4998826;28;20636;-67
2023/03/04 06:39:13;;;;;;;33.30;13.70;;;-3.00;99.90;;;;;;4992940;28;20191;-68
2023/03/04 06:41:39;;;;;;;44.00;14.13;;;-2.90;99.90;;;;;;4999052;28;20190;-67
2023/03/04 06:44:05;;;;;;;32.83;14.07;;;-2.80;99.90;;;;;;4993444;28;20223;-67
2023/03/04 06:46:33;;;;;;;33.73;14.17;;;-2.70;99.90;;;;;;4994889;28;20226;-67
2023/03/04 06:48:58;;;;;;;32.77;13.27;;;-2.60;99.90;;;;;;4994180;28;20438;-67
2023/03/04 06:51:24;;;;;;;45.13;16.27;;;-2.60;99.90;;;;;;4995679;28;20423;-67
2023/03/04 06:53:50;;;;;;;26.63;13.53;;;-2.50;99.90;;;;;;4993908;28;20266;-68
2023/03/04 06:56:15;;;;;;;37.00;15.00;;;-2.40;99.90;;;;;;4994370;28;20179;-67
2023/03/04 06:58:42;;;;;;;33.47;14.60;;;-2.30;99.90;;;;;;4993932;28;20180;-67
2023/03/04 07:01:27;;;;;;;38.57;15.37;;;-2.20;99.90;;;;;;4993191;28;20199;-67
2023/03/04 07:03:55;;;;;;;30.07;13.60;;;-2.10;99.90;;;;;;4995240;28;20458;-67
2023/03/04 07:06:24;;;;;;;40.03;16.10;;;-2.00;99.90;;;;;;4993756;28;20545;-68
2023/03/04 07:08:51;;;;;;;32.17;15.10;;;-1.90;99.90;;;;;;4995573;28;20423;-67
2023/03/04 07:11:18;;;;;;;42.83;16.83;;;-1.80;99.90;;;;;;4994589;28;20919;-68
2023/03/04 07:13:45;;;;;;;33.17;15.23;;;-1.70;99.90;;;;;;4993685;28;20887;-67
2023/03/04 07:16:14;;;;;;;34.47;16.00;;;-1.60;99.90;;;;;;4994069;28;20431;-67
2023/03/04 07:18:40;;;;;;;47.67;15.10;;;-1.50;99.90;;;;;;4995496;28;20952;-68
2023/03/04 07:21:06;;;;;;;37.97;12.57;;;-1.40;99.90;;;;;;4991262;28;20423;-67
2023/03/04 07:23:34;;;;;;;36.83;14.00;;;-1.30;99.90;;;;;;4993558;28;20184;-67
2023/03/04 07:25:59;;;;;;;35.60;14.67;;;-1.20;99.90;;;;;;4991103;28;20462;-68
2023/03/04 07:28:25;;;;;;;31.90;13.27;;;-1.10;99.90;;;;;;4998574;28;20429;-67
2023/03/04 07:30:51;;;;;;;29.07;12.23;;;-1.00;99.90;;;;;;4997476;28;20185;-67
2023/03/04 07:33:17;;;;;;;33.10;12.30;;;-0.90;99.90;;;;;;5000806;28;20421;-67
2023/03/04 07:35:42;;;;;;;32.07;13.60;;;-0.80;99.90;;;;;;4998714;28;20275;-68
2023/03/04 07:38:08;;;;;;;26.80;11.73;;;-0.70;99.90;;;;;;4999563;28;20183;-67
2023/03/04 07:40:34;;;;;;;24.70;10.37;;;-0.60;99.90;;;;;;4997908;28;20227;-68
2023/03/04 07:42:59;;;;;;;43.83;14.37;;;-0.60;99.90;;;;;;4996593;28;20183;-67
2023/03/04 07:45:25;;;;;;;28.37;11.40;;;-0.60;99.90;;;;;;4997947;28;20680;-67
2023/03/04 07:47:51;;;;;;;23.40;11.70;;;-0.70;99.90;;;;;;4998030;28;20183;-68
2023/03/04 07:50:17;;;;;;;22.20;11.87;;;-0.70;99.90;;;;;;4999170;28;20207;-67
2023/03/04 07:52:45;;;;;;;22.83;11.10;;;-0.70;99.90;;;;;;4999112;28;20434;-67
2023/03/04 07:55:13;;;;;;;25.30;11.17;;;-0.70;99.90;;;;;;4994831;28;20433;-67
2023/03/04 07:57:43;;;;;;;28.70;12.20;;;-0.70;99.90;;;;;;5001047;28;20426;-67
2023/03/04 08:00:11;;;;;;;25.37;11.47;;;-0.70;99.90;;;;;;4994438;28;20942;-67
2023/03/04 08:02:37;;;;;;;31.40;12.03;;;-0.60;99.90;;;;;;5000923;28;20425;-67
2023/03/04 08:05:03;;;;;;;30.20;13.47;;;-0.60;99.90;;;;;;4993075;28;20470;-67
2023/03/04 08:07:29;;;;;;;28.60;12.23;;;-0.60;99.90;;;;;;4997615;28;20848;-67
2023/03/04 08:09:54;;;;;;;29.10;13.40;;;-0.70;99.90;;;;;;4996711;28;20214;-67
2023/03/04 08:12:20;;;;;;;29.83;12.67;;;-0.70;99.90;;;;;;4998779;28;20183;-67
2023/03/04 08:14:46;;;;;;;27.87;12.03;;;-0.70;99.90;;;;;;4997866;28;20179;-67
2023/03/04 08:17:13;;;;;;;34.83;14.37;;;-0.70;99.90;;;;;;4999111;28;20191;-67
2023/03/04 08:19:39;;;;;;;32.43;13.83;;;-0.70;99.90;;;;;;4991361;28;20180;-66
2023/03/04 08:22:05;;;;;;;37.37;13.63;;;-0.70;99.90;;;;;;4995639;28;20982;-68
2023/03/04 08:24:30;;;;;;;28.20;12.20;;;-0.80;99.90;;;;;;4993150;28;20561;-68
2023/03/04 08:26:56;;;;;;;31.20;13.83;;;-0.80;99.90;;;;;;4999075;28;20219;-68
2023/03/04 08:29:24;;;;;;;30.00;12.90;;;-0.90;99.90;;;;;;4997138;28;20270;-68
2023/03/04 08:31:50;;;;;;;29.50;12.10;;;-0.90;99.90;;;;;;4998231;28;20639;-68
2023/03/04 08:34:18;;;;;;;34.70;13.10;;;-0.90;99.90;;;;;;4993561;28;20419;-68
2023/03/04 08:36:43;;;;;;;21.90;10.10;;;-0.90;99.90;;;;;;4999201;28;20955;-68
2023/03/04 08:39:12;;;;;;;25.47;10.13;;;-0.90;99.90;;;;;;4994610;28;20509;-68
2023/03/04 08:41:38;;;;;;;29.50;11.77;;;-0.80;99.90;;;;;;4999637;28;20648;-68
2023/03/04 08:44:04;;;;;;;23.50;11.87;;;-0.80;99.90;;;;;;4995600;28;20787;-68
2023/03/04 08:46:30;;;;;;;35.80;12.77;;;-0.80;99.90;;;;;;4995635;28;20489;-68
2023/03/04 08:48:56;;;;;;;24.17;10.70;;;-0.70;99.90;;;;;;4996026;28;20892;-67
2023/03/04 08:51:22;;;;;;;28.10;11.00;;;-0.60;99.90;;;;;;4996450;28;20179;-68
2023/03/04 08:53:47;;;;;;;24.97;10.80;;;-0.60;99.90;;;;;;4995331;28;20426;-67
2023/03/04 08:56:14;;;;;;;25.83;10.63;;;-0.50;99.90;;;;;;4995850;28;20223;-68
2023/03/04 08:58:40;;;;;;;28.27;12.03;;;-0.50;99.90;;;;;;4995567;28;20539;-68
2023/03/04 09:01:11;;;;;;;26.23;11.70;;;-0.50;99.90;;;;;;4995100;28;20454;-68
2023/03/04 09:03:37;;;;;;;30.70;11.47;;;-0.50;99.90;;;;;;4994937;28;20427;-68
2023/03/04 09:06:03;;;;;;;33.53;13.47;;;-0.50;99.90;;;;;;4996467;28;20476;-68
2023/03/04 09:08:29;;;;;;;35.73;12.97;;;-0.50;99.90;;;;;;4991849;28;20427;-67
2023/03/04 09:10:55;;;;;;;28.23;12.43;;;-0.40;99.90;;;;;;4998856;28;20453;-68
2023/03/04 09:13:22;;;;;;;33.10;12.03;;;-0.40;99.90;;;;;;4992369;28;20421;-68
2023/03/04 09:15:50;;;;;;;35.97;12.50;;;-0.40;99.90;;;;;;4998502;28;20637;-68
2023/03/04 09:18:17;;;;;;;32.83;13.33;;;-0.30;99.90;;;;;;4993428;28;20856;-68
2023/03/04 09:20:43;;;;;;;33.33;13.13;;;-0.30;99.90;;;;;;4988344;28;20907;-68
2023/03/04 09:23:09;;;;;;;33.03;13.40;;;-0.30;99.90;;;;;;4991093;28;20419;-68
2023/03/04 09:25:36;;;;;;;34.73;12.00;;;-0.40;99.90;;;;;;4993222;28;20529;-68
2023/03/04 09:28:02;;;;;;;32.47;12.50;;;-0.30;99.90;;;;;;4995683;28;20188;-68
2023/03/04 09:30:27;;;;;;;32.87;12.40;;;-0.30;99.90;;;;;;4990029;28;20411;-68
2023/03/04 09:32:53;;;;;;;36.87;12.90;;;-0.30;99.90;;;;;;4994887;28;20617;-68
2023/03/04 09:35:19;;;;;;;26.40;10.47;;;-0.10;99.90;;;;;;4999565;28;20192;-68
2023/03/04 09:37:45;;;;;;;29.00;12.07;;;0.00;99.90;;;;;;4995521;28;20183;-67
2023/03/04 09:40:18;;;;;;;25.90;10.73;;;0.00;99.90;;;;;;4997240;28;20644;-68
2023/03/04 09:42:49;;;;;;;29.60;9.93;;;0.00;99.90;;;;;;4995673;28;20427;-67
2023/03/04 09:45:21;;;;;;;25.10;11.63;;;0.00;99.90;;;;;;4996091;28;20462;-67
2023/03/04 09:47:49;;;;;;;34.90;12.63;;;0.10;99.90;;;;;;4993479;28;20415;-68
2023/03/04 09:50:16;;;;;;;24.83;12.03;;;0.10;99.90;;;;;;4995002;28;20501;-68
2023/03/04 09:52:42;;;;;;;17.37;9.50;;;0.10;99.90;;;;;;4994325;28;20434;-67
2023/03/04 09:55:24;;;;;;;26.70;11.47;;;0.20;99.90;;;;;;4993131;28;20456;-68
2023/03/04 09:57:50;;;;;;;27.43;9.50;;;0.20;99.90;;;;;;4997296;28;20222;-68
2023/03/04 10:00:22;;;;;;;31.63;11.13;;;0.20;99.90;;;;;;4991372;28;20978;-68
2023/03/04 10:03:09;;;;;;;21.50;9.93;;;0.10;99.90;;;;;;4996587;28;20643;-68
2023/03/04 10:06:04;;;;;;;27.20;11.70;;;0.20;99.90;;;;;;4989680;28;20478;-65
2023/03/04 10:08:30;;;;;;;25.73;11.07;;;0.30;99.90;;;;;;4986464;28;20508;-66
2023/03/04 10:10:57;;;;;;;28.07;12.17;;;0.40;99.90;;;;;;4996618;28;20501;-68
2023/03/04 10:13:32;;;;;;;28.43;12.00;;;0.40;99.90;;;;;;4991226;28;20187;-68
2023/03/04 10:16:01;;;;;;;27.80;11.60;;;0.60;99.90;;;;;;4991346;28;20414;-68
2023/03/04 10:18:36;;;;;;;27.17;12.10;;;0.60;99.90;;;;;;4987968;28;20974;-68
2023/03/04 10:21:16;;;;;;;25.93;12.63;;;0.70;99.90;;;;;;4992600;28;20573;-68
2023/03/04 10:23:42;;;;;;;35.20;11.07;;;0.80;99.90;;;;;;4993643;28;20842;-67
2023/03/04 10:26:15;;;;;;;21.10;10.20;;;0.90;99.90;;;;;;4991556;28;20582;-68
2023/03/04 10:28:41;;;;;;;29.33;11.80;;;0.90;99.90;;;;;;4998539;28;20171;-67
2023/03/04 10:31:31;;;;;;;32.43;12.37;;;1.00;99.90;;;;;;4992504;28;20421;-67
2023/03/04 10:33:57;;;;;;;24.40;13.40;;;1.10;99.90;;;;;;4989583;28;20176;-68
2023/03/04 10:36:28;;;;;;;30.23;11.50;;;1.10;99.90;;;;;;4995893;28;20434;-68
2023/03/04 10:39:20;;;;;;;23.27;10.73;;;1.30;99.90;;;;;;4993135;28;20212;-68
2023/03/04 10:41:55;;;;;;;23.27;11.37;;;1.30;99.90;;;;;;4978311;28;20782;-68
2023/03/04 10:44:21;;;;;;;30.10;12.43;;;1.40;99.90;;;;;;4993659;28;20462;-68
2023/03/04 10:46:48;;;;;;;37.63;12.50;;;1.40;99.90;;;;;;4994215;28;20410;-68
2023/03/04 10:49:16;;;;;;;29.50;12.97;;;1.50;99.90;;;;;;4995193;28;20462;-68
2023/03/04 10:51:50;;;;;;;28.67;12.53;;;1.60;99.90;;;;;;4995580;28;20634;-68
2023/03/04 10:54:26;;;;;;;32.93;11.83;;;1.60;99.90;;;;;;4996524;28;20947;-68
2023/03/04 10:57:13;;;;;;;27.80;12.20;;;1.60;99.90;;;;;;4993431;28;20425;-68
2023/03/04 10:59:55;;;;;;;29.20;12.33;;;1.70;99.90;;;;;;4995710;28;20488;-68
2023/03/04 11:02:30;;;;;;;34.43;13.50;;;1.70;99.90;;;;;;4993580;28;20911;-68
2023/03/04 11:05:07;;;;;;;26.70;12.73;;;1.70;99.90;;;;;;4997476;28;20504;-67
2023/03/04 11:07:39;;;;;;;24.80;10.77;;;1.70;99.90;;;;;;4997381;28;20415;-68
2023/03/04 11:10:30;;;;;;;32.77;12.50;;;1.70;99.90;;;;;;4995410;28;20939;-67
2023/03/04 11:12:58;;;;;;;31.07;12.50;;;1.70;99.90;;;;;;4985332;28;20439;-67
2023/03/04 11:15:27;;;;;;;28.70;12.03;;;1.80;99.90;;;;;;5001178;28;20844;-67
2023/03/04 11:18:03;;;;;;;25.90;11.27;;;1.90;99.90;;;;;;4997374;28;20425;-67
2023/03/04 11:20:39;;;;;;;24.77;12.40;;;2.00;99.90;;;;;;4999723;28;20427;-67
2023/03/04 11:23:13;;;;;;;30.07;13.23;;;2.10;99.90;;;;;;4994186;28;20505;-67
2023/03/04 11:25:43;;;;;;;35.07;14.23;;;2.30;99.90;;;;;;4992023;28;20470;-67
2023/03/04 11:28:32;;;;;;;27.27;13.57;;;2.30;99.90;;;;;;4999354;28;20427;-67
2023/03/04 11:31:02;;;;;;;25.13;11.43;;;2.20;99.90;;;;;;4993231;28;20463;-67
2023/03/04 11:33:55;;;;;;;36.70;13.77;;;2.20;99.90;;;;;;4990648;28;20912;-67
2023/03/04 11:36:27;;;;;;;34.17;13.43;;;2.20;99.90;;;;;;4997282;28;20431;-67
2023/03/04 11:38:54;;;;;;;25.23;10.40;;;2.30;99.90;;;;;;4995400;28;20510;-67
2023/03/04 11:41:35;;;;;;;26.43;11.60;;;2.30;99.90;;;;;;4998537;28;20427;-67
2023/03/04 11:44:01;;;;;;;49.40;13.57;;;2.30;99.90;;;;;;4995744;28;20430;-67
2023/03/04 11:46:44;;;;;;;29.77;14.27;;;2.40;99.90;;;;;;4996519;28;20482;-67
2023/03/04 11:49:36;;;;;;;29.93;13.70;;;2.50;99.90;;;;;;4996726;28;20419;-67
2023/03/04 11:52:09;;;;;;;27.50;12.20;;;2.60;99.90;;;;;;4993910;28;20422;-67
2023/03/04 11:54:49;;;;;;;32.33;13.73;;;2.60;99.90;;;;;;4997888;28;20411;-67
2023/03/04 11:57:47;;;;;;;35.70;14.50;;;2.60;99.90;;;;;;4995426;28;20419;-67
2023/03/04 12:00:38;;;;;;;24.83;11.93;;;2.60;99.90;;;;;;4992249;28;20462;-67
2023/03/04 12:03:37;;;;;;;27.73;13.10;;;2.60;99.90;;;;;;4993651;28;20426;-67
2023/03/04 12:06:12;;;;;;;29.17;13.43;;;2.70;99.90;;;;;;4997863;28;20501;-67
2023/03/04 12:09:10;;;;;;;31.00;12.13;;;2.70;99.90;;;;;;4996477;28;20414;-67
2023/03/04 12:11:48;;;;;;;25.83;12.13;;;2.60;99.90;;;;;;4989476;28;20473;-67
2023/03/04 12:14:24;;;;;;;29.33;12.67;;;2.50;99.90;;;;;;4997151;28;20910;-67
2023/03/04 12:17:21;;;;;;;29.57;15.03;;;2.70;99.90;;;;;;4996015;28;20423;-67
2023/03/04 12:19:58;;;;;;;34.30;14.23;;;2.80;99.90;;;;;;4996366;28;20426;-67
2023/03/04 12:22:50;;;;;;;31.80;11.80;;;2.90;99.90;;;;;;4998491;28;20757;-67
2023/03/04 12:25:38;;;;;;;33.97;12.20;;;3.00;99.90;;;;;;4994020;28;20821;-67
2023/03/04 12:28:24;;;;;;;23.50;12.40;;;2.90;99.80;;;;;;4993894;28;20532;-67
2023/03/04 12:31:11;;;;;;;41.47;13.70;;;3.00;99.90;;;;;;4978907;28;20506;-67
2023/03/04 12:34:02;;;;;;;26.30;12.53;;;3.00;99.80;;;;;;4996676;28;20510;-67
2023/03/04 12:36:37;;;;;;;30.40;12.43;;;2.90;99.80;;;;;;4995647;28;20456;-67